createdAt,value
2019-02-10T00:00:26.714Z,83.10
2019-02-10T00:02:55.346Z,83.10
2019-02-10T00:05:23.817Z,83.60
2019-02-10T00:07:52.650Z,83.30
2019-02-10T00:10:21.126Z,83.40
2019-02-10T00:13:27.712Z,83.30
2019-02-10T00:15:58.806Z,83.60
2019-02-10T00:18:27.580Z,83.90
2019-02-10T00:20:56.531Z,83.80
2019-02-10T00:23:25.056Z,83.60
2019-02-10T00:25:53.535Z,84.10
2019-02-10T00:28:21.987Z,84.20
2019-02-10T00:30:50.628Z,84.30
2019-02-10T00:33:19.090Z,84.50
2019-02-10T00:35:47.639Z,84.40
2019-02-10T00:38:16.109Z,84.50
2019-02-10T00:40:44.651Z,84.70
2019-02-10T00:43:13.129Z,84.80
2019-02-10T00:45:41.613Z,85.00
2019-02-10T00:48:10.072Z,85.30
2019-02-10T00:50:38.549Z,85.50
2019-02-10T00:53:07.015Z,85.50
2019-02-10T00:55:35.505Z,85.60
2019-02-10T00:58:04.096Z,86.00
2019-02-10T01:00:32.665Z,86.20
2019-02-10T01:03:01.175Z,86.10
2019-02-10T01:05:29.813Z,85.90
2019-02-10T01:07:58.361Z,86.00
2019-02-10T01:10:27.199Z,86.00
2019-02-10T01:12:56.019Z,86.10
2019-02-10T01:15:24.557Z,86.10
2019-02-10T01:17:53.035Z,85.80
2019-02-10T01:20:21.509Z,86.00
2019-02-10T01:22:49.985Z,86.10
2019-02-10T01:25:18.453Z,86.10
2019-02-10T01:27:46.938Z,86.40
2019-02-10T01:30:15.939Z,86.50
2019-02-10T01:32:44.495Z,86.50
2019-02-10T01:35:13.598Z,86.40
2019-02-10T01:37:42.079Z,86.70
2019-02-10T01:40:11.384Z,87.00
2019-02-10T01:42:39.874Z,86.80
2019-02-10T01:45:12.576Z,86.90
2019-02-10T01:47:41.042Z,86.80
2019-02-10T01:50:11.052Z,86.60
2019-02-10T01:52:39.603Z,86.70
2019-02-10T01:55:14.195Z,86.60
2019-02-10T01:57:42.896Z,86.60
2019-02-10T02:00:14.388Z,86.80
2019-02-10T02:02:42.928Z,86.80
2019-02-10T02:05:11.535Z,86.80
2019-02-10T02:07:40.288Z,87.00
2019-02-10T02:10:11.360Z,86.90
2019-02-10T02:12:39.838Z,87.10
2019-02-10T02:15:11.109Z,86.90
2019-02-10T02:17:39.589Z,86.90
2019-02-10T02:20:09.784Z,86.80
2019-02-10T02:22:38.265Z,86.90
2019-02-10T02:25:08.840Z,86.90
2019-02-10T02:27:37.482Z,87.10
2019-02-10T02:30:08.781Z,87.20
2019-02-10T02:32:37.260Z,87.20
2019-02-10T02:35:06.362Z,87.00
2019-02-10T02:37:34.818Z,87.20
2019-02-10T02:40:03.763Z,87.20
2019-02-10T02:42:32.230Z,87.20
2019-02-10T02:45:00.701Z,87.20
2019-02-10T02:47:29.171Z,87.40
2019-02-10T02:49:57.736Z,87.50
2019-02-10T02:52:26.192Z,87.50
2019-02-10T02:54:54.661Z,87.30
2019-02-10T02:57:23.153Z,87.20
2019-02-10T02:59:51.622Z,87.50
2019-02-10T03:02:20.085Z,87.50
2019-02-10T03:04:48.586Z,87.50
2019-02-10T03:07:18.301Z,87.70
2019-02-10T03:09:46.913Z,87.80
2019-02-10T03:12:15.371Z,87.70
2019-02-10T03:14:44.099Z,87.70
2019-02-10T03:17:12.560Z,87.70
2019-02-10T03:19:41.023Z,87.70
2019-02-10T03:22:09.531Z,87.70
2019-02-10T03:24:38.066Z,87.70
2019-02-10T03:27:06.547Z,87.60
2019-02-10T03:29:35.082Z,87.60
2019-02-10T03:32:03.549Z,87.60
2019-02-10T03:34:32.091Z,87.70
2019-02-10T03:37:00.551Z,87.90
2019-02-10T03:39:29.033Z,87.70
2019-02-10T03:41:57.511Z,88.00
2019-02-10T03:44:26.078Z,87.70
2019-02-10T03:46:54.601Z,87.60
2019-02-10T03:49:23.066Z,87.80
2019-02-10T03:51:51.537Z,87.70
2019-02-10T03:54:19.992Z,87.90
2019-02-10T03:56:48.479Z,88.70
2019-02-10T03:59:17.260Z,88.00
2019-02-10T04:01:45.722Z,87.90
2019-02-10T04:04:14.200Z,87.90
2019-02-10T04:06:42.690Z,87.80
2019-02-10T04:09:11.147Z,87.70
2019-02-10T04:11:39.624Z,87.60
2019-02-10T04:14:08.106Z,87.30
2019-02-10T04:16:36.557Z,87.20
2019-02-10T04:19:05.026Z,87.00
2019-02-10T04:21:33.504Z,87.00
2019-02-10T04:24:01.960Z,86.70
2019-02-10T04:26:30.452Z,86.60
2019-02-10T04:28:58.927Z,86.60
2019-02-10T04:31:27.392Z,86.30
2019-02-10T04:33:55.861Z,86.30
2019-02-10T04:36:24.328Z,86.30
2019-02-10T04:38:52.805Z,86.10
2019-02-10T04:41:21.273Z,86.00
2019-02-10T04:43:49.757Z,85.80
2019-02-10T04:46:18.210Z,85.80
2019-02-10T04:48:46.682Z,85.70
2019-02-10T04:51:15.147Z,85.50
2019-02-10T04:53:43.629Z,85.30
2019-02-10T04:56:16.610Z,85.20
2019-02-10T04:58:45.086Z,85.00
2019-02-10T05:01:13.622Z,84.90
2019-02-10T05:03:42.652Z,84.80
2019-02-10T05:06:11.192Z,84.60
2019-02-10T05:08:39.663Z,84.30
2019-02-10T05:11:08.135Z,84.30
2019-02-10T05:13:36.597Z,84.10
2019-02-10T05:16:05.076Z,84.00
2019-02-10T05:18:33.538Z,84.00
2019-02-10T05:21:02.008Z,83.80
2019-02-10T05:23:30.474Z,83.70
2019-02-10T05:25:58.965Z,83.50
2019-02-10T05:28:27.441Z,83.50
2019-02-10T05:30:55.912Z,83.10
2019-02-10T05:33:24.987Z,83.00
2019-02-10T05:35:54.070Z,82.70
2019-02-10T05:38:22.534Z,82.60
2019-02-10T05:40:51.000Z,82.40
2019-02-10T05:43:19.462Z,82.30
2019-02-10T05:45:48.496Z,82.00
2019-02-10T05:48:16.956Z,81.80
2019-02-10T05:50:45.465Z,81.60
2019-02-10T05:53:13.982Z,81.50
2019-02-10T05:55:43.037Z,81.10
2019-02-10T05:58:12.067Z,81.00
2019-02-10T06:00:40.548Z,81.00
2019-02-10T06:03:09.010Z,81.00
2019-02-10T06:05:38.058Z,80.70
2019-02-10T06:08:12.913Z,80.60
2019-02-10T06:10:37.284Z,80.50
2019-02-10T06:13:06.311Z,80.60
2019-02-10T06:15:35.363Z,80.40
2019-02-10T06:18:04.391Z,80.00
2019-02-10T06:20:33.424Z,80.80
2019-02-10T06:23:02.448Z,80.00
2019-02-10T06:25:31.488Z,80.00
2019-02-10T06:28:00.523Z,79.80
2019-02-10T06:30:29.008Z,79.70
2019-02-10T06:32:58.034Z,79.50
2019-02-10T06:35:27.066Z,79.50
2019-02-10T06:37:56.090Z,79.40
2019-02-10T06:40:24.569Z,79.30
2019-02-10T06:42:53.605Z,79.00
2019-02-10T06:45:22.652Z,78.80
2019-02-10T06:47:51.685Z,78.60
2019-02-10T06:50:20.717Z,78.30
2019-02-10T06:52:49.745Z,78.30
2019-02-10T06:55:18.781Z,78.00
2019-02-10T06:57:47.810Z,77.80
2019-02-10T07:00:30.819Z,77.40
2019-02-10T07:03:26.319Z,76.70
2019-02-10T07:05:55.363Z,76.80
2019-02-10T07:08:30.360Z,76.90
2019-02-10T07:10:55.166Z,76.90
2019-02-10T07:13:30.236Z,77.20
2019-02-10T07:16:18.972Z,77.10
2019-02-10T07:19:24.545Z,77.20
2019-02-10T07:21:53.592Z,77.20
2019-02-10T07:24:37.667Z,77.50
2019-02-10T07:27:21.693Z,77.50
2019-02-10T07:29:59.420Z,77.70
2019-02-10T07:32:31.010Z,77.80
2019-02-10T07:35:19.734Z,77.90
2019-02-10T07:37:51.862Z,77.90
2019-02-10T07:40:44.972Z,78.10
2019-02-10T07:43:50.592Z,78.90
2019-02-10T07:46:37.934Z,78.20
2019-02-10T07:49:31.326Z,78.20
2019-02-10T07:52:24.270Z,78.50
2019-02-10T07:54:56.424Z,78.50
2019-02-10T07:57:34.251Z,78.60
2019-02-10T08:00:21.373Z,78.80
2019-02-10T08:02:56.212Z,78.70
2019-02-10T08:05:31.018Z,79.00
2019-02-10T08:08:20.787Z,79.10
2019-02-10T08:11:13.996Z,79.20
2019-02-10T08:14:04.254Z,79.20
2019-02-10T08:16:45.492Z,79.30
2019-02-10T08:19:46.429Z,79.40
2019-02-10T08:22:27.231Z,79.50
2019-02-10T08:24:59.373Z,79.50
2019-02-10T08:27:40.325Z,79.60
2019-02-10T08:30:12.517Z,79.50
2019-02-10T08:32:47.407Z,79.50
2019-02-10T08:35:25.336Z,79.70
2019-02-10T08:38:06.203Z,79.50
2019-02-10T08:40:53.376Z,79.40
2019-02-10T08:43:31.314Z,79.20
2019-02-10T08:46:12.386Z,78.80
2019-02-10T08:48:49.753Z,78.20
2019-02-10T08:51:38.447Z,77.80
2019-02-10T08:54:07.821Z,77.10
2019-02-10T08:56:36.871Z,76.20
2019-02-10T08:59:05.909Z,76.30
2019-02-10T09:01:34.929Z,75.60
2019-02-10T09:04:03.985Z,75.40
2019-02-10T09:06:33.021Z,75.10
2019-02-10T09:09:02.808Z,74.90
2019-02-10T09:11:32.035Z,75.00
2019-02-10T09:14:01.131Z,74.40
2019-02-10T09:16:30.184Z,75.20
2019-02-10T09:18:59.231Z,74.50
2019-02-10T09:21:28.274Z,74.20
2019-02-10T09:23:57.319Z,74.00
2019-02-10T09:26:26.353Z,74.00
2019-02-10T09:28:55.403Z,73.80
2019-02-10T09:31:24.431Z,73.70
2019-02-10T09:33:53.593Z,73.80
2019-02-10T09:36:22.600Z,73.60
2019-02-10T09:38:51.635Z,73.00
2019-02-10T09:41:20.670Z,72.80
2019-02-10T09:43:49.722Z,72.90
2019-02-10T09:46:18.743Z,73.00
2019-02-10T09:48:47.787Z,73.30
2019-02-10T09:51:16.838Z,73.30
2019-02-10T09:53:45.898Z,73.50
2019-02-10T09:56:14.943Z,73.70
2019-02-10T09:58:43.990Z,73.50
2019-02-10T10:01:14.682Z,74.00
2019-02-10T10:03:43.964Z,73.90
2019-02-10T10:06:13.006Z,74.00
2019-02-10T10:08:42.060Z,74.00
2019-02-10T10:11:11.094Z,74.20
2019-02-10T10:13:40.156Z,74.30
2019-02-10T10:16:09.192Z,74.60
2019-02-10T10:18:38.250Z,75.00
2019-02-10T10:21:07.286Z,75.20
2019-02-10T10:23:36.334Z,76.40
2019-02-10T10:26:05.381Z,75.80
2019-02-10T10:28:34.417Z,75.80
2019-02-10T10:31:03.484Z,76.00
2019-02-10T10:33:32.515Z,76.00
2019-02-10T10:36:01.573Z,76.00
2019-02-10T10:38:30.617Z,76.00
2019-02-10T10:40:59.665Z,75.90
2019-02-10T10:43:28.796Z,76.00
2019-02-10T10:45:57.919Z,75.70
2019-02-10T10:48:26.959Z,75.70
2019-02-10T10:50:56.014Z,75.80
2019-02-10T10:53:25.061Z,75.80
2019-02-10T10:55:54.113Z,76.00
2019-02-10T10:58:23.225Z,76.00
2019-02-10T11:00:52.273Z,76.00
2019-02-10T11:03:21.327Z,75.60
2019-02-10T11:05:50.387Z,75.60
2019-02-10T11:08:19.429Z,75.50
2019-02-10T11:10:48.481Z,75.00
2019-02-10T11:13:17.789Z,75.20
2019-02-10T11:15:46.854Z,75.30
2019-02-10T11:18:15.880Z,75.40
2019-02-10T11:20:44.989Z,75.40
2019-02-10T11:23:14.073Z,75.30
2019-02-10T11:25:43.123Z,75.10
2019-02-10T11:28:12.161Z,74.90
2019-02-10T11:30:41.250Z,74.90
2019-02-10T11:33:10.361Z,74.60
2019-02-10T11:35:40.291Z,74.50
2019-02-10T11:38:09.335Z,74.40
2019-02-10T11:40:38.397Z,74.30
2019-02-10T11:43:07.431Z,74.30
2019-02-10T11:45:36.480Z,74.20
2019-02-10T11:48:05.591Z,74.30
2019-02-10T11:50:34.669Z,74.30
2019-02-10T11:53:03.687Z,74.50
2019-02-10T11:55:32.750Z,74.40
2019-02-10T11:58:01.787Z,74.40
2019-02-10T12:00:30.866Z,74.40
2019-02-10T12:02:59.899Z,74.40
2019-02-10T12:05:28.944Z,74.40
2019-02-10T12:07:57.993Z,74.50
2019-02-10T12:10:27.056Z,74.60
2019-02-10T12:12:56.106Z,74.30
2019-02-10T12:15:25.153Z,74.20
2019-02-10T12:17:54.198Z,74.10
2019-02-10T12:20:23.250Z,73.70
2019-02-10T12:22:52.288Z,73.30
2019-02-10T12:25:21.333Z,73.50
2019-02-10T12:27:50.374Z,73.50
2019-02-10T12:30:19.431Z,73.20
2019-02-10T12:32:48.467Z,73.30
2019-02-10T12:35:17.582Z,73.10
2019-02-10T12:37:46.883Z,73.20
2019-02-10T12:40:15.980Z,73.30
2019-02-10T12:42:45.038Z,73.10
2019-02-10T12:45:14.644Z,73.30
2019-02-10T12:47:43.745Z,73.20
2019-02-10T12:50:17.128Z,73.40
2019-02-10T12:52:46.193Z,73.50
2019-02-10T12:55:15.323Z,73.50
2019-02-10T12:57:44.363Z,73.70
2019-02-10T13:00:17.945Z,73.60
2019-02-10T13:02:47.025Z,73.60
2019-02-10T13:05:16.145Z,73.30
2019-02-10T13:07:45.173Z,73.30
2019-02-10T13:10:17.863Z,73.60
2019-02-10T13:12:46.141Z,73.30
2019-02-10T13:15:15.203Z,73.20
2019-02-10T13:17:44.244Z,73.30
2019-02-10T13:20:13.667Z,73.00
2019-02-10T13:22:42.740Z,72.80
2019-02-10T13:25:12.978Z,72.80
2019-02-10T13:27:42.009Z,73.80
2019-02-10T13:30:13.995Z,73.30
2019-02-10T13:32:43.102Z,73.70
2019-02-10T13:35:12.203Z,74.00
2019-02-10T13:37:41.249Z,74.10
2019-02-10T13:40:18.776Z,74.20
2019-02-10T13:42:47.831Z,74.80
2019-02-10T13:45:16.870Z,74.20
2019-02-10T13:47:46.071Z,74.00
2019-02-10T13:50:19.349Z,74.00
2019-02-10T13:52:48.426Z,73.80
2019-02-10T13:55:17.762Z,73.40
2019-02-10T13:57:46.789Z,73.00
2019-02-10T14:00:23.038Z,72.60
2019-02-10T14:02:52.150Z,71.60
2019-02-10T14:05:21.387Z,71.30
2019-02-10T14:07:51.227Z,71.10
2019-02-10T14:10:25.759Z,71.00
2019-02-10T14:12:51.377Z,71.60
2019-02-10T14:15:20.786Z,70.70
2019-02-10T14:17:49.858Z,70.70
2019-02-10T14:20:19.730Z,70.60
2019-02-10T14:22:48.800Z,70.60
2019-02-10T14:25:17.847Z,71.30
2019-02-10T14:27:47.480Z,70.30
2019-02-10T14:30:23.581Z,69.90
2019-02-10T14:32:52.721Z,69.30
2019-02-10T14:35:23.622Z,68.50
2019-02-10T14:37:52.765Z,68.60
2019-02-10T14:40:21.889Z,68.60
2019-02-10T14:42:50.959Z,68.60
2019-02-10T14:45:20.009Z,68.80
2019-02-10T14:47:49.055Z,67.80
2019-02-10T14:50:18.745Z,67.90
2019-02-10T14:52:47.807Z,67.80
2019-02-10T14:55:16.917Z,68.00
2019-02-10T14:57:46.516Z,68.20
2019-02-10T15:00:16.599Z,68.10
2019-02-10T15:02:45.726Z,68.30
2019-02-10T15:05:14.767Z,68.20
2019-02-10T15:07:43.825Z,69.30
2019-02-10T15:10:21.449Z,68.60
2019-02-10T15:12:51.055Z,68.90
2019-02-10T15:15:20.149Z,68.60
2019-02-10T15:17:49.197Z,68.60
2019-02-10T15:20:18.244Z,68.60
2019-02-10T15:22:47.271Z,69.00
2019-02-10T15:25:16.315Z,69.00
2019-02-10T15:27:45.415Z,69.00
2019-02-10T15:30:19.066Z,69.00
2019-02-10T15:32:48.111Z,68.70
2019-02-10T15:35:17.183Z,68.10
2019-02-10T15:37:46.248Z,68.40
2019-02-10T15:40:15.271Z,68.50
2019-02-10T15:42:44.309Z,68.80
2019-02-10T15:45:14.199Z,69.00
2019-02-10T15:47:43.271Z,69.10
2019-02-10T15:50:13.647Z,69.30
2019-02-10T15:52:42.699Z,69.60
2019-02-10T15:55:12.915Z,69.50
2019-02-10T15:57:42.139Z,69.70
2019-02-10T16:00:17.295Z,69.90
2019-02-10T16:02:46.346Z,70.10
2019-02-10T16:05:15.456Z,70.30
2019-02-10T16:07:44.584Z,70.80
2019-02-10T16:10:13.702Z,71.00
2019-02-10T16:12:42.759Z,71.20
2019-02-10T16:15:12.735Z,71.60
2019-02-10T16:17:41.778Z,71.90
2019-02-10T16:20:13.532Z,72.30
2019-02-10T16:22:42.564Z,72.70
2019-02-10T16:25:11.597Z,73.10
2019-02-10T16:27:40.652Z,73.60
2019-02-10T16:30:17.294Z,74.00
2019-02-10T16:32:50.063Z,74.30
2019-02-10T16:35:17.126Z,74.50
2019-02-10T16:37:46.174Z,75.00
2019-02-10T16:40:17.918Z,75.30
2019-02-10T16:42:46.965Z,75.50
2019-02-10T16:45:16.018Z,75.80
2019-02-10T16:47:45.132Z,76.30
2019-02-10T16:50:15.428Z,76.60
2019-02-10T16:52:44.476Z,76.60
2019-02-10T16:55:22.537Z,77.00
2019-02-10T16:57:51.592Z,77.50
2019-02-10T17:00:20.648Z,77.80
2019-02-10T17:02:49.700Z,77.90
2019-02-10T17:05:18.741Z,78.10
2019-02-10T17:07:47.811Z,78.20
2019-02-10T17:10:21.677Z,78.50
2019-02-10T17:12:50.720Z,79.00
2019-02-10T17:15:19.757Z,79.20
2019-02-10T17:17:48.821Z,80.10
2019-02-10T17:20:18.228Z,80.40
2019-02-10T17:22:47.277Z,80.30
2019-02-10T17:25:25.187Z,80.50
2019-02-10T17:27:54.243Z,80.80
2019-02-10T17:30:23.274Z,80.80
2019-02-10T17:32:52.315Z,80.90
2019-02-10T17:35:21.351Z,81.30
2019-02-10T17:37:50.405Z,81.80
2019-02-10T17:40:28.202Z,81.90
2019-02-10T17:42:57.241Z,82.10
2019-02-10T17:45:26.285Z,82.20
2019-02-10T17:47:55.311Z,82.40
2019-02-10T17:50:24.387Z,83.10
2019-02-10T17:52:53.417Z,83.10
2019-02-10T17:55:22.461Z,83.10
2019-02-10T17:57:51.497Z,83.40
2019-02-10T18:00:22.362Z,83.40
2019-02-10T18:02:51.404Z,83.20
2019-02-10T18:05:20.490Z,83.50
2019-02-10T18:07:49.540Z,83.70
2019-02-10T18:10:18.602Z,83.90
2019-02-10T18:12:47.632Z,85.20
2019-02-10T18:15:24.448Z,84.30
2019-02-10T18:18:01.127Z,84.90
2019-02-10T18:20:34.564Z,84.20
2019-02-10T18:23:23.275Z,84.20
2019-02-10T18:25:53.977Z,84.40
2019-02-10T18:28:24.708Z,84.50
2019-02-10T18:31:04.659Z,84.10
2019-02-10T18:33:41.566Z,83.90
2019-02-10T18:36:14.808Z,83.70
2019-02-10T18:38:48.530Z,83.50
2019-02-10T18:41:19.232Z,83.30
2019-02-10T18:43:49.906Z,83.60
2019-02-10T18:46:20.584Z,83.50
2019-02-10T18:49:06.170Z,83.60
2019-02-10T18:51:39.342Z,83.60
2019-02-10T18:54:10.095Z,82.60
2019-02-10T18:56:46.406Z,82.60
2019-02-10T18:59:29.061Z,82.50
2019-02-10T19:01:59.751Z,82.70
2019-02-10T19:04:46.683Z,81.00
2019-02-10T19:07:26.170Z,81.20
2019-02-10T19:09:59.801Z,80.10
2019-02-10T19:12:33.173Z,79.90
2019-02-10T19:15:03.829Z,79.70
2019-02-10T19:17:40.739Z,79.70
2019-02-10T19:20:24.407Z,79.70
2019-02-10T19:22:55.089Z,79.70
2019-02-10T19:25:42.345Z,79.40
2019-02-10T19:28:13.033Z,79.40
2019-02-10T19:30:49.183Z,79.70
2019-02-10T19:33:25.897Z,79.70
2019-02-10T19:36:02.341Z,79.70
2019-02-10T19:38:49.295Z,79.70
2019-02-10T19:41:19.958Z,79.70
2019-02-10T19:44:06.977Z,79.60
2019-02-10T19:46:37.635Z,79.70
2019-02-10T19:49:26.699Z,79.90
2019-02-10T19:51:57.364Z,80.00
2019-02-10T19:54:30.768Z,80.00
2019-02-10T19:57:10.200Z,79.90
2019-02-10T19:59:49.642Z,79.70
2019-02-10T20:02:29.510Z,79.70
2019-02-10T20:05:00.200Z,79.70
2019-02-10T20:07:33.854Z,79.80
2019-02-10T20:10:04.542Z,79.30
2019-02-10T20:12:41.000Z,78.90
2019-02-10T20:15:18.220Z,78.20
2019-02-10T20:17:54.448Z,77.40
2019-02-10T20:20:27.862Z,77.10
2019-02-10T20:23:01.320Z,77.30
2019-02-10T20:25:41.012Z,77.10
2019-02-10T20:28:27.758Z,76.80
2019-02-10T20:31:14.620Z,76.90
2019-02-10T20:33:53.758Z,76.70
2019-02-10T20:36:40.893Z,76.80
2019-02-10T20:39:11.549Z,76.70
2019-02-10T20:41:43.408Z,76.70
2019-02-10T20:44:23.160Z,76.70
2019-02-10T20:46:53.837Z,76.70
2019-02-10T20:49:24.776Z,76.90
2019-02-10T20:51:55.517Z,77.00
2019-02-10T20:54:32.223Z,77.10
2019-02-10T20:57:06.004Z,77.30
2019-02-10T20:59:39.685Z,77.50
2019-02-10T21:02:19.384Z,77.50
2019-02-10T21:05:05.984Z,77.80
2019-02-10T21:07:39.579Z,78.20
2019-02-10T21:10:28.389Z,79.20
2019-02-10T21:12:59.069Z,79.70
2019-02-10T21:15:32.693Z,80.20
2019-02-10T21:18:19.833Z,80.30
2019-02-10T21:20:56.525Z,79.90
2019-02-10T21:23:30.071Z,79.60
2019-02-10T21:26:00.763Z,78.80
2019-02-10T21:28:31.825Z,78.00
2019-02-10T21:31:05.457Z,77.40
2019-02-10T21:33:51.203Z,77.30
2019-02-10T21:36:30.611Z,77.00
2019-02-10T21:39:07.441Z,77.40
2019-02-10T21:41:38.108Z,77.70
2019-02-10T21:44:11.504Z,77.90
2019-02-10T21:46:44.842Z,78.20
2019-02-10T21:49:13.893Z,78.20
2019-02-10T21:51:42.919Z,78.30
2019-02-10T21:54:11.957Z,78.40
2019-02-10T21:56:40.992Z,77.90
2019-02-10T21:59:10.019Z,77.70
2019-02-10T22:01:39.055Z,77.50
2019-02-10T22:04:08.128Z,76.90
2019-02-10T22:06:37.218Z,76.50
2019-02-10T22:09:06.523Z,76.20
2019-02-10T22:11:35.580Z,75.70
2019-02-10T22:14:04.679Z,75.70
2019-02-10T22:16:33.732Z,75.40
2019-02-10T22:19:02.745Z,75.50
2019-02-10T22:21:31.786Z,75.50
2019-02-10T22:24:00.809Z,75.40
2019-02-10T22:26:29.860Z,75.60
2019-02-10T22:28:58.876Z,75.90
2019-02-10T22:31:27.914Z,76.30
2019-02-10T22:33:56.924Z,76.70
2019-02-10T22:36:25.415Z,77.20
2019-02-10T22:38:54.450Z,77.20
2019-02-10T22:41:23.490Z,77.40
2019-02-10T22:43:52.520Z,77.50
2019-02-10T22:46:21.558Z,77.70
2019-02-10T22:48:50.032Z,77.70
2019-02-10T22:51:18.507Z,78.50
2019-02-10T22:53:46.983Z,77.90
2019-02-10T22:56:16.040Z,78.00
2019-02-10T22:58:45.073Z,78.10
2019-02-10T23:01:14.103Z,78.30
2019-02-10T23:03:42.561Z,78.30
2019-02-10T23:06:11.603Z,78.30
2019-02-10T23:08:40.624Z,78.00
2019-02-10T23:11:09.737Z,77.50
2019-02-10T23:13:38.761Z,77.20
2019-02-10T23:16:07.789Z,76.70
2019-02-10T23:18:36.835Z,76.40
2019-02-10T23:21:05.875Z,76.30
2019-02-10T23:23:34.915Z,76.90
2019-02-10T23:26:03.935Z,75.90
2019-02-10T23:28:32.431Z,75.90
2019-02-10T23:31:01.454Z,76.10
2019-02-10T23:33:30.506Z,76.20
2019-02-10T23:35:59.096Z,76.40
2019-02-10T23:38:28.137Z,76.70
2019-02-10T23:40:57.170Z,77.00
2019-02-10T23:43:26.199Z,77.10
2019-02-10T23:45:55.251Z,77.30
2019-02-10T23:48:24.282Z,77.70
2019-02-10T23:50:53.303Z,78.00
2019-02-10T23:53:22.337Z,78.20
2019-02-10T23:55:51.366Z,78.70
2019-02-10T23:58:19.841Z,79.30
